Jobs Corners, Pennsylvania
Current Conditions -  °F | °C
As of 8:53 PM on Wednesday 22 Oct 2014 (Local Time) from KELM Reporting Station
Overcast Overcast  
Wind Chill: 43°   Ceiling: 1200
Heat Index: 49°   Visibility: 10mi
Dew Point: 44°   Wind: 16mph
Humidity: 83%   Direction: 20°NNE
Pressure: 30.08"   Gusts: 26mph
Location:  41.9565°N, 76.9857°W
Report Text: KELM 230053Z 02014G23KT 10SM OVC012 09/07 A3008 RMK AO2 PK WND 01026/0017 SLP191 T00940067
Loading
Personal Weather Stations






























Interactive Weather Map
Tropical Storm Tracking
New forecast layout! Learn more

10-Day Weather Forecast

Advertisements
Track Severe Weather on mobile